Latest Weather Observations for Ferny Creek
Issued at 3:31 am EST Sunday 10 May 2026 (issued every 10 minutes, with the page automatically refreshed every 10 minutes)
| Station Details | ID: 086266 | Name: FERNY CREEK | Lat: -37.87 | Lon: 145.35 | Height: 512.9 m |
| Date/Time EST |
Temp °C |
App Temp °C |
Dew Point °C |
Rel Hum % |
Delta-T °C |
Wind | Press QNH hPa |
Press MSL hPa |
Rain since 9am mm |
||||
|---|---|---|---|---|---|---|---|---|---|---|---|---|---|
| Dir | Spd km/h |
Gust km/h |
Spd kts |
Gust kts |
|||||||||
| 10/03:30am | 9.5 | 9.3 | 9.2 | 98 | 0.2 | CALM | 0 | 0 | 0 | 0 | 1028.4 | 1028.7 | 0.4 |
| 10/03:00am | 9.8 | 9.0 | 9.7 | 99 | 0.1 | SSE | 4 | 9 | 2 | 5 | 1028.4 | 1028.7 | 0.4 |
| 10/02:30am | 10.0 | 9.3 | 9.9 | 99 | 0.1 | SW | 4 | 9 | 2 | 5 | 1028.6 | 1028.9 | 0.4 |
| 10/02:00am | 10.0 | 9.6 | 9.9 | 99 | 0.1 | SSE | 2 | 7 | 1 | 4 | 1028.7 | 1029.0 | 0.4 |
| 10/01:30am | 10.2 | 9.5 | 10.1 | 99 | 0.1 | WSW | 4 | 9 | 2 | 5 | 1028.6 | 1028.9 | 0.4 |
| 10/01:00am | 10.3 | 10.0 | 10.1 | 99 | 0.1 | SW | 2 | 4 | 1 | 2 | 1028.8 | 1029.1 | 0.4 |
| 10/12:30am | 10.3 | 10.4 | 10.1 | 99 | 0.1 | CALM | 0 | 4 | 0 | 2 | 1028.8 | 1029.1 | 0.4 |
| 10/12:00am | 10.3 | 10.0 | 10.1 | 99 | 0.1 | SSW | 2 | 9 | 1 | 5 | 1028.8 | 1029.1 | 0.2 |
| Date/Time EST |
Temp °C |
App Temp °C |
Dew Point °C |
Rel Hum % |
Delta-T °C |
Wind | Press QNH hPa |
Press MSL hPa |
Rain since 9am mm |
||||
|---|---|---|---|---|---|---|---|---|---|---|---|---|---|
| Dir | Spd km/h |
Gust km/h |
Spd kts |
Gust kts |
|||||||||
| 09/11:30pm | 10.2 | 9.9 | 10.1 | 99 | 0.1 | S | 2 | 6 | 1 | 3 | 1028.8 | 1029.1 | 0.2 |
| 09/11:00pm | 10.2 | 9.5 | 9.9 | 98 | 0.2 | SSW | 4 | 7 | 2 | 4 | 1028.9 | 1029.2 | 0.0 |
| 09/10:30pm | 10.2 | 9.5 | 9.9 | 98 | 0.2 | WSW | 4 | 9 | 2 | 5 | 1028.9 | 1029.2 | 0.0 |
| 09/10:00pm | 10.1 | 9.7 | 9.8 | 98 | 0.2 | SW | 2 | 6 | 1 | 3 | 1029.0 | 1029.3 | 0.0 |
| 09/09:30pm | 10.2 | 9.8 | 9.9 | 98 | 0.2 | SW | 2 | 6 | 1 | 3 | 1028.8 | 1029.1 | 0.0 |
| 09/09:00pm | 10.3 | 10.4 | 10.0 | 98 | 0.2 | CALM | 0 | 7 | 0 | 4 | 1028.6 | 1028.9 | 0.0 |
| 09/08:30pm | 10.4 | 10.1 | 10.1 | 98 | 0.2 | WSW | 2 | 7 | 1 | 4 | 1028.6 | 1028.9 | 0.0 |
| 09/08:00pm | 10.7 | 10.1 | 10.4 | 98 | 0.2 | SSW | 4 | 9 | 2 | 5 | 1028.6 | 1028.9 | 0.0 |
| 09/07:30pm | 10.7 | 10.1 | 10.4 | 98 | 0.2 | SW | 4 | 9 | 2 | 5 | 1028.4 | 1028.7 | 0.0 |
| 09/07:00pm | 10.8 | 10.6 | 10.5 | 98 | 0.2 | SW | 2 | 6 | 1 | 3 | 1028.3 | 1028.6 | 0.0 |
| 09/06:30pm | 10.8 | 10.6 | 10.3 | 97 | 0.3 | SW | 2 | 7 | 1 | 4 | 1028.1 | 1028.3 | 0.0 |
| 09/06:00pm | 11.1 | 11.4 | 10.8 | 98 | 0.2 | CALM | 0 | 0 | 0 | 0 | 1027.8 | 1028.0 | 0.0 |
| 09/05:30pm | 11.2 | 11.1 | 10.7 | 97 | 0.3 | SW | 2 | 6 | 1 | 3 | 1027.5 | 1027.7 | 0.0 |
| 09/05:00pm | 11.3 | 11.5 | 10.7 | 96 | 0.3 | CALM | 0 | 6 | 0 | 3 | 1027.4 | 1027.6 | 0.0 |
| 09/04:30pm | 11.6 | 11.5 | 10.8 | 95 | 0.4 | SW | 2 | 9 | 1 | 5 | 1027.2 | 1027.4 | 0.0 |
| 09/04:00pm | 12.0 | 11.6 | 11.1 | 94 | 0.5 | SW | 4 | 7 | 2 | 4 | 1027.0 | 1027.3 | 0.0 |
| 09/03:30pm | 12.1 | 12.0 | 10.8 | 92 | 0.7 | SW | 2 | 6 | 1 | 3 | 1026.9 | 1027.2 | 0.0 |
| 09/03:00pm | 12.0 | 12.3 | 10.9 | 93 | 0.6 | CALM | 0 | 0 | 0 | 0 | 1026.9 | 1027.2 | 0.0 |
| 09/02:30pm | 12.1 | 12.0 | 10.7 | 91 | 0.7 | SSE | 2 | 6 | 1 | 3 | 1026.9 | 1027.2 | 0.0 |
| 09/02:00pm | 12.1 | 11.6 | 10.8 | 92 | 0.7 | SSW | 4 | 7 | 2 | 4 | 1027.0 | 1027.3 | 0.0 |
| 09/01:30pm | 11.9 | 11.4 | 10.6 | 92 | 0.7 | SW | 4 | 9 | 2 | 5 | 1027.0 | 1027.3 | 0.0 |
| 09/01:00pm | 11.7 | 11.1 | 10.4 | 92 | 0.7 | SSE | 4 | 9 | 2 | 5 | 1027.3 | 1027.5 | 0.0 |
| 09/12:30pm | 11.3 | 10.7 | 10.5 | 95 | 0.4 | S | 4 | 11 | 2 | 6 | 1027.6 | 1027.8 | 0.0 |
| 09/12:00pm | 11.2 | 10.6 | 10.4 | 95 | 0.4 | SSW | 4 | 9 | 2 | 5 | 1027.9 | 1028.1 | 0.0 |
| 09/11:30am | 11.0 | 10.1 | 10.7 | 98 | 0.2 | S | 6 | 9 | 3 | 5 | 1028.0 | 1028.2 | 0.0 |
| 09/11:00am | 11.0 | 10.5 | 10.8 | 99 | 0.1 | S | 4 | 7 | 2 | 4 | 1028.0 | 1028.2 | 0.0 |
| 09/10:30am | 10.4 | 9.7 | 10.2 | 99 | 0.1 | SE | 4 | 13 | 2 | 7 | 1028.0 | 1028.2 | 0.0 |
| 09/10:00am | 10.0 | 8.7 | 9.9 | 99 | 0.1 | SSE | 7 | 15 | 4 | 8 | 1027.9 | 1028.1 | 0.0 |
| 09/09:30am | 10.2 | 9.5 | 10.1 | 99 | 0.1 | S | 4 | 9 | 2 | 5 | 1027.8 | 1028.0 | 0.0 |
| 09/09:00am | 10.1 | 9.4 | 10.0 | 99 | 0.1 | SE | 4 | 7 | 2 | 4 | 1027.6 | 1027.8 | 12.4 |
| 09/08:30am | 9.8 | 9.0 | 9.7 | 99 | 0.1 | SSE | 4 | 9 | 2 | 5 | 1027.5 | 1027.7 | 12.4 |
| 09/08:00am | 9.7 | 8.9 | 9.6 | 99 | 0.1 | SSE | 4 | 7 | 2 | 4 | 1027.0 | 1027.3 | 12.2 |
| 09/07:30am | 9.7 | 9.3 | 9.6 | 99 | 0.1 | SE | 2 | 9 | 1 | 5 | 1026.7 | 1027.0 | 12.2 |
| 09/07:00am | 9.7 | 8.5 | 9.6 | 99 | 0.1 | SSW | 6 | 15 | 3 | 8 | 1026.6 | 1026.9 | 12.0 |
| 09/06:30am | 9.7 | 9.3 | 9.6 | 99 | 0.1 | W | 2 | 7 | 1 | 4 | 1026.5 | 1026.7 | 11.8 |
| 09/06:00am | 9.5 | 9.4 | 9.4 | 99 | 0.1 | CALM | 0 | 2 | 0 | 1 | 1026.1 | 1026.3 | 11.4 |
| 09/05:30am | 9.5 | 8.6 | 9.4 | 99 | 0.1 | SW | 4 | 11 | 2 | 6 | 1025.9 | 1026.1 | 11.0 |
| 09/05:00am | 9.3 | 9.1 | 9.2 | 99 | 0.1 | CALM | 0 | 6 | 0 | 3 | 1025.8 | 1026.0 | 10.6 |
| 09/04:30am | 9.2 | 8.6 | 8.9 | 98 | 0.2 | SSW | 2 | 7 | 1 | 4 | 1025.5 | 1025.7 | 10.0 |
| 09/04:00am | 9.3 | 8.7 | 9.0 | 98 | 0.2 | S | 2 | 7 | 1 | 4 | 1025.4 | 1025.6 | 9.2 |
| 09/03:30am | 9.3 | 8.7 | 9.0 | 98 | 0.2 | S | 2 | 11 | 1 | 6 | 1025.5 | 1025.7 | 7.8 |
| 09/03:00am | 9.2 | 8.2 | 8.9 | 98 | 0.2 | WSW | 4 | 9 | 2 | 5 | 1025.4 | 1025.6 | 6.4 |
| 09/02:30am | 9.2 | 8.2 | 8.9 | 98 | 0.2 | SSW | 4 | 11 | 2 | 6 | 1025.3 | 1025.5 | 6.2 |
| 09/02:00am | 9.1 | 8.1 | 8.8 | 98 | 0.1 | W | 4 | 7 | 2 | 4 | 1025.4 | 1025.6 | 6.2 |
| 09/01:30am | 8.9 | 8.6 | 8.6 | 98 | 0.1 | CALM | 0 | 4 | 0 | 2 | 1025.2 | 1025.4 | 6.2 |
| 09/01:00am | 9.0 | 8.0 | 8.7 | 98 | 0.1 | WSW | 4 | 7 | 2 | 4 | 1025.4 | 1025.6 | 6.2 |
| 09/12:30am | 9.0 | 8.0 | 8.7 | 98 | 0.2 | WSW | 4 | 7 | 2 | 4 | 1025.4 | 1025.6 | 6.2 |
| 09/12:00am | 9.0 | 7.6 | 8.7 | 98 | 0.1 | WSW | 6 | 9 | 3 | 5 | 1025.4 | 1025.6 | 6.2 |
| Date/Time EST |
Temp °C |
App Temp °C |
Dew Point °C |
Rel Hum % |
Delta-T °C |
Wind | Press QNH hPa |
Press MSL hPa |
Rain since 9am mm |
||||
|---|---|---|---|---|---|---|---|---|---|---|---|---|---|
| Dir | Spd km/h |
Gust km/h |
Spd kts |
Gust kts |
|||||||||
| 08/11:30pm | 9.2 | 8.3 | 9.1 | 99 | 0.1 | WSW | 4 | 7 | 2 | 4 | 1025.4 | 1025.6 | 6.2 |
| 08/11:00pm | 9.3 | 8.4 | 9.2 | 99 | 0.1 | SW | 4 | 9 | 2 | 5 | 1025.4 | 1025.6 | 6.2 |
| 08/10:30pm | 9.3 | 8.0 | 9.2 | 99 | 0.1 | SW | 6 | 17 | 3 | 9 | 1025.6 | 1025.8 | 6.2 |
| 08/10:00pm | 9.5 | 8.6 | 9.4 | 99 | 0.1 | W | 4 | 17 | 2 | 9 | 1025.6 | 1025.8 | 6.2 |
| 08/09:30pm | 9.5 | 8.6 | 9.4 | 99 | 0.1 | WSW | 4 | 13 | 2 | 7 | 1025.4 | 1025.6 | 6.0 |
| 08/09:00pm | 9.5 | 8.6 | 9.4 | 99 | 0.1 | WSW | 4 | 13 | 2 | 7 | 1025.3 | 1025.5 | 5.8 |
| 08/08:30pm | 9.3 | 7.9 | 9.0 | 98 | 0.2 | WSW | 6 | 15 | 3 | 8 | 1025.0 | 1025.3 | 5.8 |
| 08/08:00pm | 9.4 | 8.1 | 9.3 | 99 | 0.1 | WSW | 6 | 13 | 3 | 7 | 1024.9 | 1025.2 | 5.8 |
| 08/07:30pm | 9.4 | 8.1 | 9.3 | 99 | 0.1 | SW | 6 | 11 | 3 | 6 | 1024.7 | 1024.9 | 5.6 |
| 08/07:00pm | 9.4 | 8.1 | 9.1 | 98 | 0.2 | WSW | 6 | 11 | 3 | 6 | 1024.5 | 1024.7 | 5.4 |
| 08/06:30pm | 9.1 | 8.0 | 8.6 | 97 | 0.3 | W | 4 | 11 | 2 | 6 | 1024.3 | 1024.5 | 5.4 |
| 08/06:00pm | 9.3 | 7.3 | 8.8 | 97 | 0.3 | WSW | 9 | 20 | 5 | 11 | 1024.1 | 1024.3 | 5.2 |
| 08/05:30pm | 8.9 | 7.1 | 8.1 | 95 | 0.4 | W | 7 | 24 | 4 | 13 | 1023.7 | 1023.9 | 5.2 |
| 08/05:00pm | 9.5 | 8.1 | 8.9 | 96 | 0.3 | W | 6 | 17 | 3 | 9 | 1023.5 | 1023.7 | 5.2 |
| 08/04:30pm | 9.7 | 8.4 | 9.1 | 96 | 0.3 | WSW | 6 | 13 | 3 | 7 | 1023.4 | 1023.6 | 5.2 |
| 08/04:00pm | 9.7 | 8.2 | 9.2 | 97 | 0.3 | WSW | 7 | 22 | 4 | 12 | 1023.4 | 1023.6 | 5.2 |
| 08/03:30pm | 9.7 | 7.9 | 9.4 | 98 | 0.2 | WSW | 9 | 20 | 5 | 11 | 1023.2 | 1023.3 | 5.0 |
| 08/03:00pm | 9.8 | 8.0 | 9.5 | 98 | 0.2 | W | 9 | 28 | 5 | 15 | 1023.1 | 1023.2 | 4.2 |
| 08/02:30pm | 9.7 | 7.5 | 9.2 | 97 | 0.3 | WSW | 11 | 33 | 6 | 18 | 1023.1 | 1023.2 | 4.0 |
| 08/02:00pm | 10.4 | 9.1 | 9.9 | 97 | 0.3 | W | 7 | 19 | 4 | 10 | 1022.8 | 1023.0 | 3.0 |
| 08/01:30pm | 9.8 | 8.3 | 9.3 | 97 | 0.3 | W | 7 | 19 | 4 | 10 | 1022.8 | 1023.0 | 3.0 |
| 08/01:00pm | 9.7 | 8.3 | 9.4 | 98 | 0.2 | WSW | 7 | 19 | 4 | 10 | 1022.7 | 1022.9 | 2.8 |
| 08/12:30pm | 10.0 | 8.9 | 9.9 | 99 | 0.1 | W | 6 | 13 | 3 | 7 | 1022.7 | 1022.9 | 2.8 |
| 08/12:00pm | 9.6 | 8.2 | 9.5 | 99 | 0.1 | W | 7 | 26 | 4 | 14 | 1023.1 | 1023.2 | 1.8 |
| 08/11:30am | 9.9 | 8.8 | 9.8 | 99 | 0.1 | W | 6 | 13 | 3 | 7 | 1023.1 | 1023.2 | 1.6 |
| 08/11:00am | 9.8 | 8.1 | 9.7 | 99 | 0.1 | W | 9 | 20 | 5 | 11 | 1022.8 | 1023.0 | 1.6 |
| 08/10:30am | 9.8 | 9.0 | 9.7 | 99 | 0.1 | WNW | 4 | 11 | 2 | 6 | 1022.6 | 1022.8 | 0.6 |
| 08/10:00am | 9.6 | 8.4 | 9.5 | 99 | 0.1 | W | 6 | 11 | 3 | 6 | 1022.4 | 1022.6 | 0.4 |
| 08/09:30am | 9.5 | 8.3 | 9.4 | 99 | 0.1 | W | 6 | 13 | 3 | 7 | 1022.2 | 1022.4 | 0.2 |
| 08/09:00am | 9.5 | 8.1 | 9.4 | 99 | 0.1 | W | 7 | 20 | 4 | 11 | 1022.0 | 1022.2 | 16.4 |
| 08/08:30am | 9.5 | 7.7 | 9.4 | 99 | 0.1 | W | 9 | 19 | 5 | 10 | 1021.7 | 1021.9 | 15.4 |
| 08/08:00am | 9.4 | 7.6 | 9.3 | 99 | 0.1 | W | 9 | 22 | 5 | 12 | 1021.2 | 1021.3 | 15.4 |
| 08/07:30am | 9.4 | 7.6 | 9.3 | 99 | 0.1 | W | 9 | 20 | 5 | 11 | 1020.6 | 1020.8 | 14.8 |
| 08/07:00am | 9.4 | 7.9 | 9.3 | 99 | 0.1 | W | 7 | 17 | 4 | 9 | 1020.5 | 1020.7 | 14.8 |
| 08/06:30am | 9.4 | 7.9 | 9.3 | 99 | 0.1 | W | 7 | 19 | 4 | 10 | 1020.2 | 1020.4 | 14.4 |
| 08/06:00am | 9.4 | 8.5 | 9.3 | 99 | 0.1 | W | 4 | 7 | 2 | 4 | 1020.1 | 1020.3 | 13.2 |
| 08/05:30am | 9.4 | 8.1 | 9.3 | 99 | 0.1 | WNW | 6 | 13 | 3 | 7 | 1019.9 | 1020.0 | 12.2 |
| 08/05:00am | 9.3 | 8.0 | 9.2 | 99 | 0.1 | W | 6 | 15 | 3 | 8 | 1019.7 | 1019.8 | 11.2 |
| 08/04:30am | 9.1 | 7.7 | 9.0 | 99 | 0.1 | W | 6 | 11 | 3 | 6 | 1019.4 | 1019.5 | 11.0 |
| 08/04:00am | 9.0 | 7.4 | 8.9 | 99 | 0.1 | W | 7 | 13 | 4 | 7 | 1019.3 | 1019.4 | 10.8 |
| 08/03:30am | 8.9 | 7.5 | 8.8 | 99 | 0.1 | WNW | 6 | 19 | 3 | 10 | 1019.1 | 1019.2 | 10.8 |
| 08/03:00am | 8.8 | 7.2 | 8.7 | 99 | 0.0 | W | 7 | 17 | 4 | 9 | 1019.2 | 1019.3 | 10.8 |
| 08/02:30am | 8.7 | 7.2 | 8.6 | 99 | 0.0 | WNW | 6 | 17 | 3 | 9 | 1019.2 | 1019.3 | 10.8 |
| 08/02:00am | 8.6 | 6.9 | 8.5 | 99 | 0.0 | W | 7 | 19 | 4 | 10 | 1019.2 | 1019.3 | 10.8 |
| 08/01:30am | 8.4 | 6.7 | 8.3 | 99 | 0.0 | W | 7 | 15 | 4 | 8 | 1019.5 | 1019.6 | 10.8 |
| 08/01:00am | 8.1 | 6.5 | 8.0 | 99 | 0.0 | W | 6 | 9 | 3 | 5 | 1019.7 | 1019.8 | 10.8 |
| 08/12:30am | 7.7 | 6.0 | 7.6 | 99 | 0.0 | W | 6 | 11 | 3 | 6 | 1019.9 | 1020.0 | 10.8 |
| 08/12:00am | 7.4 | 6.0 | 7.3 | 99 | 0.0 | W | 4 | 9 | 2 | 5 | 1020.2 | 1020.4 | 10.8 |
| Date/Time EST |
Temp °C |
App Temp °C |
Dew Point °C |
Rel Hum % |
Delta-T °C |
Wind | Press QNH hPa |
Press MSL hPa |
Rain since 9am mm |
||||
|---|---|---|---|---|---|---|---|---|---|---|---|---|---|
| Dir | Spd km/h |
Gust km/h |
Spd kts |
Gust kts |
|||||||||
| 07/11:30pm | 7.2 | 5.4 | 7.1 | 99 | 0.0 | WNW | 6 | 17 | 3 | 9 | 1020.2 | 1020.4 | 10.6 |
| 07/11:00pm | 7.0 | 5.5 | 6.9 | 99 | 0.0 | W | 4 | 9 | 2 | 5 | 1020.7 | 1020.9 | 10.4 |
| 07/10:30pm | 6.8 | 5.3 | 6.7 | 99 | 0.0 | W | 4 | 7 | 2 | 4 | 1021.0 | 1021.1 | 10.0 |
| 07/10:00pm | 6.7 | 5.2 | 6.6 | 99 | 0.0 | W | 4 | 7 | 2 | 4 | 1021.3 | 1021.4 | 9.8 |
| 07/09:30pm | 6.6 | 5.0 | 6.5 | 99 | 0.0 | W | 4 | 13 | 2 | 7 | 1021.1 | 1021.2 | 9.8 |
| 07/09:00pm | 6.6 | 5.0 | 6.3 | 98 | 0.1 | W | 4 | 9 | 2 | 5 | 1021.1 | 1021.2 | 9.8 |
| 07/08:30pm | 6.5 | 4.9 | 6.2 | 98 | 0.1 | W | 4 | 11 | 2 | 6 | 1021.4 | 1021.5 | 9.0 |
| 07/08:00pm | 6.5 | 4.5 | 6.1 | 97 | 0.2 | W | 6 | 11 | 3 | 6 | 1021.5 | 1021.6 | 8.4 |
| 07/07:30pm | 6.5 | 4.8 | 5.9 | 96 | 0.3 | WNW | 4 | 7 | 2 | 4 | 1021.5 | 1021.6 | 8.2 |
| 07/07:00pm | 6.4 | 4.7 | 5.8 | 96 | 0.3 | W | 4 | 7 | 2 | 4 | 1021.4 | 1021.5 | 8.0 |
| 07/06:30pm | 6.3 | 4.6 | 5.7 | 96 | 0.3 | W | 4 | 13 | 2 | 7 | 1021.3 | 1021.4 | 8.0 |
| 07/06:00pm | 6.2 | 4.9 | 5.8 | 97 | 0.2 | WNW | 2 | 6 | 1 | 3 | 1021.1 | 1021.2 | 8.0 |
| 07/05:30pm | 6.2 | 4.9 | 5.8 | 97 | 0.2 | WNW | 2 | 6 | 1 | 3 | 1020.8 | 1021.0 | 8.0 |
| 07/05:00pm | 6.1 | 4.4 | 5.7 | 97 | 0.2 | WNW | 4 | 7 | 2 | 4 | 1021.0 | 1021.1 | 8.0 |
| 07/04:30pm | 6.2 | 4.5 | 5.9 | 98 | 0.1 | WNW | 4 | 13 | 2 | 7 | 1020.7 | 1020.9 | 7.8 |
| 07/04:00pm | 6.1 | 4.4 | 5.8 | 98 | 0.1 | WNW | 4 | 11 | 2 | 6 | 1020.8 | 1021.0 | 7.8 |
| 07/03:30pm | 5.8 | 3.6 | 5.4 | 97 | 0.2 | W | 6 | 28 | 3 | 15 | 1021.2 | 1021.3 | 6.6 |
| 07/03:00pm | 6.0 | 3.9 | 5.7 | 98 | 0.1 | WNW | 6 | 17 | 3 | 9 | 1020.8 | 1021.0 | 5.2 |
| 07/02:30pm | 5.8 | 3.4 | 5.4 | 97 | 0.2 | W | 7 | 24 | 4 | 13 | 1020.8 | 1021.0 | 4.8 |
| 07/02:00pm | 6.8 | 4.6 | 6.4 | 97 | 0.2 | WNW | 7 | 15 | 4 | 8 | 1020.5 | 1020.7 | 3.8 |
| 07/01:30pm | 6.0 | 3.9 | 5.7 | 98 | 0.1 | W | 6 | 19 | 3 | 10 | 1020.7 | 1020.9 | 3.8 |
| 07/01:00pm | 5.7 | 3.9 | 5.3 | 97 | 0.2 | W | 4 | 11 | 2 | 6 | 1020.7 | 1020.9 | 3.6 |
| 07/12:30pm | 5.6 | 3.8 | 5.3 | 98 | 0.1 | WNW | 4 | 15 | 2 | 8 | 1020.8 | 1021.0 | 3.6 |
| 07/12:00pm | 5.4 | 3.2 | 5.3 | 99 | 0.0 | W | 6 | 13 | 3 | 7 | 1020.8 | 1021.0 | 3.6 |
| 07/11:30am | 4.7 | 2.7 | 4.4 | 98 | 0.1 | WNW | 4 | 9 | 2 | 5 | 1021.0 | 1021.1 | 2.8 |
| 07/11:00am | 4.1 | 1.6 | 3.8 | 98 | 0.1 | W | 6 | 13 | 3 | 7 | 1020.6 | 1020.8 | 2.8 |
| 07/10:30am | 4.0 | 1.5 | 3.7 | 98 | 0.1 | W | 6 | 11 | 3 | 6 | 1020.8 | 1021.0 | 2.8 |
| 07/10:00am | 4.2 | 2.1 | 3.9 | 98 | 0.1 | WNW | 4 | 6 | 2 | 3 | 1020.2 | 1020.4 | 2.2 |
| 07/09:30am | 2.8 | -0.5 | 2.4 | 97 | 0.2 | W | 9 | 20 | 5 | 11 | 1020.2 | 1020.4 | 1.2 |
| 07/09:00am | 2.7 | -0.1 | 2.3 | 97 | 0.2 | WNW | 6 | 13 | 3 | 7 | 1019.9 | 1020.0 | 24.4 |
| 07/08:30am | 2.5 | -0.3 | 2.1 | 97 | 0.2 | SW | 6 | 13 | 3 | 7 | 1019.3 | 1019.4 | 23.4 |
| 07/08:07am | 1.8 | -1.3 | 1.2 | 96 | 0.2 | WNW | 7 | 22 | 4 | 12 | 1019.4 | 1019.5 | 22.4 |
| 07/08:00am | 1.8 | -1.3 | 1.2 | 96 | 0.2 | WNW | 7 | 17 | 4 | 9 | 1019.4 | 1019.5 | 21.8 |
| 07/07:57am | 2.3 | -0.7 | 1.9 | 97 | 0.2 | W | 7 | 15 | 4 | 8 | 1019.6 | 1019.7 | 21.8 |
| 07/07:30am | 2.7 | 0.0 | 2.4 | 98 | 0.1 | WSW | 6 | 19 | 3 | 10 | 1018.2 | 1018.3 | 21.2 |
| 07/07:13am | 2.2 | -0.6 | 1.9 | 98 | 0.1 | WNW | 6 | 19 | 3 | 10 | 1018.3 | 1018.5 | 20.8 |
| 07/07:03am | 2.6 | -0.7 | 2.5 | 99 | 0.0 | W | 9 | 24 | 5 | 13 | 1018.2 | 1018.3 | 20.4 |
| 07/07:00am | 2.9 | 0.0 | 2.8 | 99 | 0.0 | W | 7 | 15 | 4 | 8 | 1018.1 | 1018.2 | 20.2 |
| 07/06:30am | 2.8 | 0.1 | 2.7 | 99 | 0.0 | W | 6 | 13 | 3 | 7 | 1017.5 | 1017.6 | 19.6 |
| 07/06:00am | 1.8 | -0.7 | 1.7 | 99 | 0.0 | WNW | 4 | 11 | 2 | 6 | 1016.9 | 1017.0 | 18.4 |
| 07/05:52am | 1.7 | -1.2 | 1.6 | 99 | 0.0 | WNW | 6 | 17 | 3 | 9 | 1017.0 | 1017.1 | 17.8 |
| 07/05:42am | 1.6 | -0.9 | 1.3 | 98 | 0.1 | WNW | 4 | 9 | 2 | 5 | 1017.2 | 1017.3 | 17.2 |
| 07/05:30am | 1.1 | -1.5 | 0.8 | 98 | 0.1 | WNW | 4 | 6 | 2 | 3 | 1016.9 | 1017.0 | 16.6 |
| 07/05:00am | 0.8 | -1.9 | 0.4 | 97 | 0.2 | WNW | 4 | 9 | 2 | 5 | 1017.2 | 1017.3 | 16.4 |
| 07/04:50am | 0.7 | -2.4 | 0.1 | 96 | 0.2 | WNW | 6 | 17 | 3 | 9 | 1017.6 | 1017.7 | 16.4 |
| 07/04:36am | 1.7 | -1.8 | 1.1 | 96 | 0.2 | W | 9 | 33 | 5 | 18 | 1017.9 | 1018.0 | 16.4 |
| 07/04:30am | 2.1 | -1.8 | 1.4 | 95 | 0.3 | WSW | 11 | 35 | 6 | 19 | 1017.7 | 1017.8 | 16.2 |
| 07/04:00am | 2.8 | 0.0 | 2.1 | 95 | 0.3 | W | 6 | 11 | 3 | 6 | 1017.0 | 1017.1 | 14.2 |
Latest Capital City Observations: Canberra | Sydney | Melbourne | Brisbane | Adelaide | Perth | Hobart | Darwin
Other formats
Comma delimited format used in spreadsheet applications
http://www.bom.gov.au/fwo/IDV60901/IDV60901.94872.axf
JavaScript Object Notation format (JSON) in row-major order
http://www.bom.gov.au/fwo/IDV60901/IDV60901.94872.json
Data quality
Most of these data are generated automatically and are frequently updated. Quality checks on data are not normally performed. It is possible for incorrect values to appear. Refer to information at About Latest Weather Observations and please check the disclaimer before using these data.
